sensor_id;sensor_type;location;lat;lon;timestamp;temperature;humidity
21340;DHT22;10828;47.064;15.422;2023-09-19T00:00:42;21.10;99.90
21340;DHT22;10828;47.064;15.422;2023-09-19T00:03:10;21.00;99.90
21340;DHT22;10828;47.064;15.422;2023-09-19T00:05:38;21.00;99.90
21340;DHT22;10828;47.064;15.422;2023-09-19T00:08:04;20.90;99.90
21340;DHT22;10828;47.064;15.422;2023-09-19T00:10:31;20.80;99.90
21340;DHT22;10828;47.064;15.422;2023-09-19T00:13:00;20.80;99.90
21340;DHT22;10828;47.064;15.422;2023-09-19T00:15:43;20.80;99.90
21340;DHT22;10828;47.064;15.422;2023-09-19T00:18:14;20.80;99.90
21340;DHT22;10828;47.064;15.422;2023-09-19T00:20:41;20.80;99.90
21340;DHT22;10828;47.064;15.422;2023-09-19T00:23:07;20.80;99.90
21340;DHT22;10828;47.064;15.422;2023-09-19T00:25:36;20.80;99.90
21340;DHT22;10828;47.064;15.422;2023-09-19T00:28:04;20.70;99.90
21340;DHT22;10828;47.064;15.422;2023-09-19T00:30:32;20.70;99.90
21340;DHT22;10828;47.064;15.422;2023-09-19T00:32:58;20.60;99.90
21340;DHT22;10828;47.064;15.422;2023-09-19T00:35:24;20.60;99.90
21340;DHT22;10828;47.064;15.422;2023-09-19T00:37:52;20.60;99.90
21340;DHT22;10828;47.064;15.422;2023-09-19T00:40:18;20.60;99.90
21340;DHT22;10828;47.064;15.422;2023-09-19T00:42:45;20.60;99.90
21340;DHT22;10828;47.064;15.422;2023-09-19T00:45:12;20.60;99.90
21340;DHT22;10828;47.064;15.422;2023-09-19T00:47:56;20.60;99.90
21340;DHT22;10828;47.064;15.422;2023-09-19T00:50:26;20.60;99.90
21340;DHT22;10828;47.064;15.422;2023-09-19T00:52:54;20.60;99.90
21340;DHT22;10828;47.064;15.422;2023-09-19T00:55:24;20.60;99.90
21340;DHT22;10828;47.064;15.422;2023-09-19T00:57:50;20.60;99.90
21340;DHT22;10828;47.064;15.422;2023-09-19T01:00:16;20.70;99.90
21340;DHT22;10828;47.064;15.422;2023-09-19T01:02:45;20.80;99.90
21340;DHT22;10828;47.064;15.422;2023-09-19T01:05:12;20.80;99.90
21340;DHT22;10828;47.064;15.422;2023-09-19T01:07:38;20.90;99.90
21340;DHT22;10828;47.064;15.422;2023-09-19T01:10:08;20.90;99.90
21340;DHT22;10828;47.064;15.422;2023-09-19T01:13:03;20.80;99.90
21340;DHT22;10828;47.064;15.422;2023-09-19T01:15:59;20.80;99.90
21340;DHT22;10828;47.064;15.422;2023-09-19T01:21:16;20.90;99.90
21340;DHT22;10828;47.064;15.422;2023-09-19T01:24:07;20.90;99.90
21340;DHT22;10828;47.064;15.422;2023-09-19T01:29:49;20.90;99.90
21340;DHT22;10828;47.064;15.422;2023-09-19T01:32:20;20.80;99.90
21340;DHT22;10828;47.064;15.422;2023-09-19T01:34:53;20.80;99.90
21340;DHT22;10828;47.064;15.422;2023-09-19T01:37:22;20.70;99.90
21340;DHT22;10828;47.064;15.422;2023-09-19T01:40:12;20.80;99.90
21340;DHT22;10828;47.064;15.422;2023-09-19T01:42:58;20.80;99.90
21340;DHT22;10828;47.064;15.422;2023-09-19T01:45:33;20.80;99.90
21340;DHT22;10828;47.064;15.422;2023-09-19T01:48:25;20.80;99.90
21340;DHT22;10828;47.064;15.422;2023-09-19T01:51:05;20.80;99.90
21340;DHT22;10828;47.064;15.422;2023-09-19T01:53:57;20.70;99.90
21340;DHT22;10828;47.064;15.422;2023-09-19T01:59:15;20.80;99.90
21340;DHT22;10828;47.064;15.422;2023-09-19T02:01:42;20.80;99.90
21340;DHT22;10828;47.064;15.422;2023-09-19T02:04:10;20.70;99.90
21340;DHT22;10828;47.064;15.422;2023-09-19T02:06:40;20.70;99.90
21340;DHT22;10828;47.064;15.422;2023-09-19T02:09:06;20.70;99.90
21340;DHT22;10828;47.064;15.422;2023-09-19T02:11:32;20.60;99.90
21340;DHT22;10828;47.064;15.422;2023-09-19T02:13:58;20.60;99.90
21340;DHT22;10828;47.064;15.422;2023-09-19T02:16:25;20.60;99.90
21340;DHT22;10828;47.064;15.422;2023-09-19T02:18:51;20.60;99.90
21340;DHT22;10828;47.064;15.422;2023-09-19T02:21:17;20.60;99.90
21340;DHT22;10828;47.064;15.422;2023-09-19T02:23:46;20.60;99.90
21340;DHT22;10828;47.064;15.422;2023-09-19T02:26:13;20.60;99.90
21340;DHT22;10828;47.064;15.422;2023-09-19T02:28:39;20.60;99.90
21340;DHT22;10828;47.064;15.422;2023-09-19T02:31:05;20.60;99.90
21340;DHT22;10828;47.064;15.422;2023-09-19T02:33:31;20.60;99.90
21340;DHT22;10828;47.064;15.422;2023-09-19T02:35:58;20.60;99.90
21340;DHT22;10828;47.064;15.422;2023-09-19T02:38:25;20.60;99.90
21340;DHT22;10828;47.064;15.422;2023-09-19T02:40:53;20.60;99.90
21340;DHT22;10828;47.064;15.422;2023-09-19T02:43:21;20.70;99.90
21340;DHT22;10828;47.064;15.422;2023-09-19T02:45:48;20.80;99.90
21340;DHT22;10828;47.064;15.422;2023-09-19T02:48:21;20.80;99.90
21340;DHT22;10828;47.064;15.422;2023-09-19T02:50:49;20.80;99.90
21340;DHT22;10828;47.064;15.422;2023-09-19T02:53:15;20.80;99.90
21340;DHT22;10828;47.064;15.422;2023-09-19T02:55:43;20.80;99.90
21340;DHT22;10828;47.064;15.422;2023-09-19T02:58:09;20.80;99.90
21340;DHT22;10828;47.064;15.422;2023-09-19T03:00:37;20.70;99.90
21340;DHT22;10828;47.064;15.422;2023-09-19T03:03:03;20.70;99.90
21340;DHT22;10828;47.064;15.422;2023-09-19T03:05:29;20.70;99.90
21340;DHT22;10828;47.064;15.422;2023-09-19T03:07:56;20.70;99.90
21340;DHT22;10828;47.064;15.422;2023-09-19T03:10:23;20.60;99.90
21340;DHT22;10828;47.064;15.422;2023-09-19T03:12:50;20.60;99.90
21340;DHT22;10828;47.064;15.422;2023-09-19T03:15:16;20.50;99.90
21340;DHT22;10828;47.064;15.422;2023-09-19T03:17:46;20.50;99.90
21340;DHT22;10828;47.064;15.422;2023-09-19T03:20:13;20.40;99.90
21340;DHT22;10828;47.064;15.422;2023-09-19T03:22:39;20.40;99.90
21340;DHT22;10828;47.064;15.422;2023-09-19T03:25:06;20.30;99.90
21340;DHT22;10828;47.064;15.422;2023-09-19T03:27:34;20.30;99.90
21340;DHT22;10828;47.064;15.422;2023-09-19T03:30:00;20.30;99.90
21340;DHT22;10828;47.064;15.422;2023-09-19T03:32:26;20.30;99.90
21340;DHT22;10828;47.064;15.422;2023-09-19T03:34:52;20.30;99.90
21340;DHT22;10828;47.064;15.422;2023-09-19T03:37:17;20.30;99.90
21340;DHT22;10828;47.064;15.422;2023-09-19T03:39:44;20.20;99.90
21340;DHT22;10828;47.064;15.422;2023-09-19T03:42:10;20.20;99.90
21340;DHT22;10828;47.064;15.422;2023-09-19T03:44:35;20.20;99.90
21340;DHT22;10828;47.064;15.422;2023-09-19T03:47:01;20.20;99.90
21340;DHT22;10828;47.064;15.422;2023-09-19T03:49:26;20.10;99.90
21340;DHT22;10828;47.064;15.422;2023-09-19T03:51:52;20.10;99.90
21340;DHT22;10828;47.064;15.422;2023-09-19T03:54:18;20.00;99.90
21340;DHT22;10828;47.064;15.422;2023-09-19T03:56:44;20.00;99.90
21340;DHT22;10828;47.064;15.422;2023-09-19T03:59:12;19.90;99.90
21340;DHT22;10828;47.064;15.422;2023-09-19T04:01:40;19.80;99.90
21340;DHT22;10828;47.064;15.422;2023-09-19T04:04:06;19.70;99.90
21340;DHT22;10828;47.064;15.422;2023-09-19T04:06:35;19.60;99.90
21340;DHT22;10828;47.064;15.422;2023-09-19T04:09:02;19.50;99.90
21340;DHT22;10828;47.064;15.422;2023-09-19T04:11:30;19.40;99.90
21340;DHT22;10828;47.064;15.422;2023-09-19T04:13:57;19.40;99.90
21340;DHT22;10828;47.064;15.422;2023-09-19T04:16:22;19.40;99.90
21340;DHT22;10828;47.064;15.422;2023-09-19T04:18:48;19.40;99.90
21340;DHT22;10828;47.064;15.422;2023-09-19T04:21:13;19.40;99.90
21340;DHT22;10828;47.064;15.422;2023-09-19T04:23:40;19.40;99.90
21340;DHT22;10828;47.064;15.422;2023-09-19T04:26:05;19.50;99.90
21340;DHT22;10828;47.064;15.422;2023-09-19T04:28:31;19.50;99.90
21340;DHT22;10828;47.064;15.422;2023-09-19T04:31:00;19.60;99.90
21340;DHT22;10828;47.064;15.422;2023-09-19T04:33:26;19.50;99.90
21340;DHT22;10828;47.064;15.422;2023-09-19T04:35:52;19.50;99.90
21340;DHT22;10828;47.064;15.422;2023-09-19T04:38:19;19.50;99.90
21340;DHT22;10828;47.064;15.422;2023-09-19T04:40:46;19.60;99.90
21340;DHT22;10828;47.064;15.422;2023-09-19T04:43:11;19.60;99.90
21340;DHT22;10828;47.064;15.422;2023-09-19T04:45:38;19.70;99.90
21340;DHT22;10828;47.064;15.422;2023-09-19T04:48:05;19.70;99.90
21340;DHT22;10828;47.064;15.422;2023-09-19T04:50:38;19.70;99.90
21340;DHT22;10828;47.064;15.422;2023-09-19T04:53:05;19.70;99.90
21340;DHT22;10828;47.064;15.422;2023-09-19T04:55:32;19.70;99.90
21340;DHT22;10828;47.064;15.422;2023-09-19T04:57:58;19.70;99.90
21340;DHT22;10828;47.064;15.422;2023-09-19T05:00:23;19.80;99.90
21340;DHT22;10828;47.064;15.422;2023-09-19T05:02:50;19.70;99.90
21340;DHT22;10828;47.064;15.422;2023-09-19T05:05:19;19.50;99.90
21340;DHT22;10828;47.064;15.422;2023-09-19T05:07:45;19.40;99.90
21340;DHT22;10828;47.064;15.422;2023-09-19T05:10:11;19.30;99.90
21340;DHT22;10828;47.064;15.422;2023-09-19T05:12:38;19.30;99.90
21340;DHT22;10828;47.064;15.422;2023-09-19T05:15:04;19.20;99.90
21340;DHT22;10828;47.064;15.422;2023-09-19T05:17:32;19.20;99.90
21340;DHT22;10828;47.064;15.422;2023-09-19T05:19:59;19.10;99.90
21340;DHT22;10828;47.064;15.422;2023-09-19T05:22:29;19.10;99.90
21340;DHT22;10828;47.064;15.422;2023-09-19T05:24:54;19.10;99.90
21340;DHT22;10828;47.064;15.422;2023-09-19T05:27:21;19.00;99.90
21340;DHT22;10828;47.064;15.422;2023-09-19T05:29:47;19.00;99.90
21340;DHT22;10828;47.064;15.422;2023-09-19T05:32:14;19.00;99.90
21340;DHT22;10828;47.064;15.422;2023-09-19T05:34:40;19.00;99.90
21340;DHT22;10828;47.064;15.422;2023-09-19T05:37:06;19.10;99.90
21340;DHT22;10828;47.064;15.422;2023-09-19T05:39:33;19.10;99.90
21340;DHT22;10828;47.064;15.422;2023-09-19T05:41:59;19.10;99.90
21340;DHT22;10828;47.064;15.422;2023-09-19T05:44:26;19.20;99.90
21340;DHT22;10828;47.064;15.422;2023-09-19T05:46:53;19.10;99.90
21340;DHT22;10828;47.064;15.422;2023-09-19T05:49:22;19.10;99.90
21340;DHT22;10828;47.064;15.422;2023-09-19T05:51:52;19.00;99.90
21340;DHT22;10828;47.064;15.422;2023-09-19T05:54:21;19.10;99.90
21340;DHT22;10828;47.064;15.422;2023-09-19T05:56:49;19.10;99.90
21340;DHT22;10828;47.064;15.422;2023-09-19T05:59:48;19.00;99.90
21340;DHT22;10828;47.064;15.422;2023-09-19T06:02:16;19.00;99.90
21340;DHT22;10828;47.064;15.422;2023-09-19T06:04:44;19.00;99.90
21340;DHT22;10828;47.064;15.422;2023-09-19T06:07:10;18.90;99.90
21340;DHT22;10828;47.064;15.422;2023-09-19T06:09:37;18.80;99.90
21340;DHT22;10828;47.064;15.422;2023-09-19T06:12:04;18.80;99.90
21340;DHT22;10828;47.064;15.422;2023-09-19T06:14:32;18.80;99.90
21340;DHT22;10828;47.064;15.422;2023-09-19T06:16:58;19.00;99.90
21340;DHT22;10828;47.064;15.422;2023-09-19T06:19:24;19.00;99.90
21340;DHT22;10828;47.064;15.422;2023-09-19T06:21:52;18.90;99.90
21340;DHT22;10828;47.064;15.422;2023-09-19T06:24:21;19.10;99.90
21340;DHT22;10828;47.064;15.422;2023-09-19T06:26:49;19.10;99.90
21340;DHT22;10828;47.064;15.422;2023-09-19T06:29:16;19.10;99.90
21340;DHT22;10828;47.064;15.422;2023-09-19T06:31:48;19.10;99.90
21340;DHT22;10828;47.064;15.422;2023-09-19T06:34:20;19.00;99.90
21340;DHT22;10828;47.064;15.422;2023-09-19T06:36:48;19.00;99.90
21340;DHT22;10828;47.064;15.422;2023-09-19T06:39:17;19.00;99.90
21340;DHT22;10828;47.064;15.422;2023-09-19T06:41:43;18.90;99.90
21340;DHT22;10828;47.064;15.422;2023-09-19T06:44:13;19.00;99.90
21340;DHT22;10828;47.064;15.422;2023-09-19T06:46:38;19.00;99.90
21340;DHT22;10828;47.064;15.422;2023-09-19T06:49:06;19.00;99.90
21340;DHT22;10828;47.064;15.422;2023-09-19T06:51:32;19.00;99.90
21340;DHT22;10828;47.064;15.422;2023-09-19T06:54:11;19.10;99.90
21340;DHT22;10828;47.064;15.422;2023-09-19T06:56:37;19.10;99.90
21340;DHT22;10828;47.064;15.422;2023-09-19T06:59:05;19.10;99.90
21340;DHT22;10828;47.064;15.422;2023-09-19T07:01:32;19.10;99.90
21340;DHT22;10828;47.064;15.422;2023-09-19T07:04:12;19.10;99.90
21340;DHT22;10828;47.064;15.422;2023-09-19T08:04:58;19.50;99.90
21340;DHT22;10828;47.064;15.422;2023-09-19T08:08:09;19.60;99.90
21340;DHT22;10828;47.064;15.422;2023-09-19T09:42:36;21.80;99.90
21340;DHT22;10828;47.064;15.422;2023-09-19T09:45:23;21.80;99.90
21340;DHT22;10828;47.064;15.422;2023-09-19T15:27:26;25.00;99.90
21340;DHT22;10828;47.064;15.422;2023-09-19T15:29:52;25.00;99.90
21340;DHT22;10828;47.064;15.422;2023-09-19T15:32:18;24.90;99.90
21340;DHT22;10828;47.064;15.422;2023-09-19T15:34:45;24.70;99.90
21340;DHT22;10828;47.064;15.422;2023-09-19T15:37:13;24.50;99.90
21340;DHT22;10828;47.064;15.422;2023-09-19T15:39:39;24.30;99.90
21340;DHT22;10828;47.064;15.422;2023-09-19T15:42:05;24.20;99.90
21340;DHT22;10828;47.064;15.422;2023-09-19T15:44:36;24.20;99.90
21340;DHT22;10828;47.064;15.422;2023-09-19T15:47:04;24.20;99.90
21340;DHT22;10828;47.064;15.422;2023-09-19T15:49:33;24.10;99.90
21340;DHT22;10828;47.064;15.422;2023-09-19T15:51:59;24.10;99.90
21340;DHT22;10828;47.064;15.422;2023-09-19T15:54:26;24.10;99.90
21340;DHT22;10828;47.064;15.422;2023-09-19T15:56:54;24.00;99.90
21340;DHT22;10828;47.064;15.422;2023-09-19T15:59:21;24.00;99.90
21340;DHT22;10828;47.064;15.422;2023-09-19T16:01:48;23.90;99.90
21340;DHT22;10828;47.064;15.422;2023-09-19T16:04:16;23.80;99.90
21340;DHT22;10828;47.064;15.422;2023-09-19T16:06:43;23.80;99.90
21340;DHT22;10828;47.064;15.422;2023-09-19T16:09:09;23.80;99.90
21340;DHT22;10828;47.064;15.422;2023-09-19T16:11:37;23.80;99.90
21340;DHT22;10828;47.064;15.422;2023-09-19T16:14:04;23.70;99.90
21340;DHT22;10828;47.064;15.422;2023-09-19T16:16:32;23.60;99.90
21340;DHT22;10828;47.064;15.422;2023-09-19T16:19:02;23.40;99.90
21340;DHT22;10828;47.064;15.422;2023-09-19T16:21:32;23.40;99.90
21340;DHT22;10828;47.064;15.422;2023-09-19T16:24:01;23.40;99.90
21340;DHT22;10828;47.064;15.422;2023-09-19T16:26:31;23.30;99.90
21340;DHT22;10828;47.064;15.422;2023-09-19T16:29:10;23.20;99.90
21340;DHT22;10828;47.064;15.422;2023-09-19T16:31:39;23.10;99.90
21340;DHT22;10828;47.064;15.422;2023-09-19T16:34:13;23.10;99.90
21340;DHT22;10828;47.064;15.422;2023-09-19T16:36:48;23.10;99.90
21340;DHT22;10828;47.064;15.422;2023-09-19T16:39:18;23.10;99.90
21340;DHT22;10828;47.064;15.422;2023-09-19T16:41:45;23.10;99.90
21340;DHT22;10828;47.064;15.422;2023-09-19T16:44:12;23.10;99.90
21340;DHT22;10828;47.064;15.422;2023-09-19T16:46:40;23.10;99.90
21340;DHT22;10828;47.064;15.422;2023-09-19T16:49:09;23.10;99.90
21340;DHT22;10828;47.064;15.422;2023-09-19T16:51:37;23.10;99.90
21340;DHT22;10828;47.064;15.422;2023-09-19T16:54:04;22.90;99.90
21340;DHT22;10828;47.064;15.422;2023-09-19T16:56:30;22.80;99.90
21340;DHT22;10828;47.064;15.422;2023-09-19T16:59:02;22.70;99.90
21340;DHT22;10828;47.064;15.422;2023-09-19T17:01:31;22.70;99.90
21340;DHT22;10828;47.064;15.422;2023-09-19T17:03:59;22.60;99.90
21340;DHT22;10828;47.064;15.422;2023-09-19T17:06:26;22.60;99.90
21340;DHT22;10828;47.064;15.422;2023-09-19T17:08:53;22.60;99.90
21340;DHT22;10828;47.064;15.422;2023-09-19T17:11:20;22.50;99.90
21340;DHT22;10828;47.064;15.422;2023-09-19T17:13:49;22.50;99.90
21340;DHT22;10828;47.064;15.422;2023-09-19T17:16:17;22.50;99.90
21340;DHT22;10828;47.064;15.422;2023-09-19T17:18:55;22.40;99.90
21340;DHT22;10828;47.064;15.422;2023-09-19T17:21:24;22.40;99.90
21340;DHT22;10828;47.064;15.422;2023-09-19T17:23:52;22.40;99.90
21340;DHT22;10828;47.064;15.422;2023-09-19T17:26:20;22.40;99.90
21340;DHT22;10828;47.064;15.422;2023-09-19T17:29:02;22.50;99.90
21340;DHT22;10828;47.064;15.422;2023-09-19T17:31:29;22.40;99.90
21340;DHT22;10828;47.064;15.422;2023-09-19T17:34:01;22.40;99.90
21340;DHT22;10828;47.064;15.422;2023-09-19T17:36:29;22.40;99.90
21340;DHT22;10828;47.064;15.422;2023-09-19T17:38:59;22.40;99.90
21340;DHT22;10828;47.064;15.422;2023-09-19T17:41:27;22.40;99.90
21340;DHT22;10828;47.064;15.422;2023-09-19T17:43:59;22.40;99.90
21340;DHT22;10828;47.064;15.422;2023-09-19T17:46:26;22.50;99.90
21340;DHT22;10828;47.064;15.422;2023-09-19T17:48:57;22.50;99.90
21340;DHT22;10828;47.064;15.422;2023-09-19T17:51:30;22.50;99.90
21340;DHT22;10828;47.064;15.422;2023-09-19T17:53:57;22.50;99.90
21340;DHT22;10828;47.064;15.422;2023-09-19T17:56:25;22.60;99.90
21340;DHT22;10828;47.064;15.422;2023-09-19T17:58:53;22.60;99.90
21340;DHT22;10828;47.064;15.422;2023-09-19T18:01:26;22.70;99.90
21340;DHT22;10828;47.064;15.422;2023-09-19T18:04:03;22.60;99.90
21340;DHT22;10828;47.064;15.422;2023-09-19T18:06:31;22.50;99.90
21340;DHT22;10828;47.064;15.422;2023-09-19T18:09:00;22.40;99.90
21340;DHT22;10828;47.064;15.422;2023-09-19T18:11:37;22.30;99.90
21340;DHT22;10828;47.064;15.422;2023-09-19T18:14:06;22.20;99.90
21340;DHT22;10828;47.064;15.422;2023-09-19T18:16:32;22.10;99.90
21340;DHT22;10828;47.064;15.422;2023-09-19T18:19:03;21.90;99.90
21340;DHT22;10828;47.064;15.422;2023-09-19T18:21:38;21.80;99.90
21340;DHT22;10828;47.064;15.422;2023-09-19T18:24:07;21.70;99.90
21340;DHT22;10828;47.064;15.422;2023-09-19T18:26:47;21.60;99.90
21340;DHT22;10828;47.064;15.422;2023-09-19T18:29:15;21.50;99.90
21340;DHT22;10828;47.064;15.422;2023-09-19T18:31:41;21.40;99.90
21340;DHT22;10828;47.064;15.422;2023-09-19T18:34:14;21.40;99.90
21340;DHT22;10828;47.064;15.422;2023-09-19T18:36:51;21.30;99.90
21340;DHT22;10828;47.064;15.422;2023-09-19T18:39:21;21.20;99.90
21340;DHT22;10828;47.064;15.422;2023-09-19T18:41:51;21.10;99.90
21340;DHT22;10828;47.064;15.422;2023-09-19T18:44:25;21.10;99.90
21340;DHT22;10828;47.064;15.422;2023-09-19T18:46:51;21.00;99.90
21340;DHT22;10828;47.064;15.422;2023-09-19T18:49:20;21.00;99.90
21340;DHT22;10828;47.064;15.422;2023-09-19T18:51:49;20.80;99.90
21340;DHT22;10828;47.064;15.422;2023-09-19T18:54:19;20.80;99.90
21340;DHT22;10828;47.064;15.422;2023-09-19T18:56:52;20.70;99.90
21340;DHT22;10828;47.064;15.422;2023-09-19T18:59:20;20.70;99.90
21340;DHT22;10828;47.064;15.422;2023-09-19T19:01:48;20.70;99.90
21340;DHT22;10828;47.064;15.422;2023-09-19T19:04:17;20.70;99.90
21340;DHT22;10828;47.064;15.422;2023-09-19T19:06:44;20.70;99.90
21340;DHT22;10828;47.064;15.422;2023-09-19T19:09:17;20.60;99.90
21340;DHT22;10828;47.064;15.422;2023-09-19T19:11:45;20.60;99.90
21340;DHT22;10828;47.064;15.422;2023-09-19T19:14:11;20.60;99.90
21340;DHT22;10828;47.064;15.422;2023-09-19T19:16:40;20.60;99.90
21340;DHT22;10828;47.064;15.422;2023-09-19T19:19:09;20.60;99.90
21340;DHT22;10828;47.064;15.422;2023-09-19T19:21:38;20.60;99.90
21340;DHT22;10828;47.064;15.422;2023-09-19T19:24:06;20.60;99.90
21340;DHT22;10828;47.064;15.422;2023-09-19T19:26:35;20.50;99.90
21340;DHT22;10828;47.064;15.422;2023-09-19T19:29:03;20.50;99.90
21340;DHT22;10828;47.064;15.422;2023-09-19T19:31:41;20.50;99.90
21340;DHT22;10828;47.064;15.422;2023-09-19T19:34:12;20.40;99.90
21340;DHT22;10828;47.064;15.422;2023-09-19T19:36:41;20.40;99.90
21340;DHT22;10828;47.064;15.422;2023-09-19T19:39:12;20.40;99.90
21340;DHT22;10828;47.064;15.422;2023-09-19T19:41:42;20.40;99.90
21340;DHT22;10828;47.064;15.422;2023-09-19T19:44:10;20.40;99.90
21340;DHT22;10828;47.064;15.422;2023-09-19T19:46:40;20.30;99.90
21340;DHT22;10828;47.064;15.422;2023-09-19T19:49:12;20.20;99.90
21340;DHT22;10828;47.064;15.422;2023-09-19T19:51:51;20.10;99.90
21340;DHT22;10828;47.064;15.422;2023-09-19T19:54:19;20.00;99.90
21340;DHT22;10828;47.064;15.422;2023-09-19T19:56:46;20.00;99.90
21340;DHT22;10828;47.064;15.422;2023-09-19T19:59:14;19.90;99.90
21340;DHT22;10828;47.064;15.422;2023-09-19T20:01:46;19.90;99.90
21340;DHT22;10828;47.064;15.422;2023-09-19T20:04:16;19.90;99.90
21340;DHT22;10828;47.064;15.422;2023-09-19T20:06:55;19.90;99.90
21340;DHT22;10828;47.064;15.422;2023-09-19T20:09:25;19.90;99.90
21340;DHT22;10828;47.064;15.422;2023-09-19T20:11:53;19.80;99.90
21340;DHT22;10828;47.064;15.422;2023-09-19T20:14:20;19.70;99.90
21340;DHT22;10828;47.064;15.422;2023-09-19T20:16:47;19.60;99.90
21340;DHT22;10828;47.064;15.422;2023-09-19T20:19:15;19.60;99.90
21340;DHT22;10828;47.064;15.422;2023-09-19T20:21:42;19.70;99.90
21340;DHT22;10828;47.064;15.422;2023-09-19T20:24:10;19.70;99.90
21340;DHT22;10828;47.064;15.422;2023-09-19T20:26:41;19.60;99.90
21340;DHT22;10828;47.064;15.422;2023-09-19T20:29:09;19.70;99.90
21340;DHT22;10828;47.064;15.422;2023-09-19T20:31:37;19.70;99.90
21340;DHT22;10828;47.064;15.422;2023-09-19T20:34:04;19.60;99.90
21340;DHT22;10828;47.064;15.422;2023-09-19T20:36:30;19.60;99.90
21340;DHT22;10828;47.064;15.422;2023-09-19T20:39:00;19.60;99.90
21340;DHT22;10828;47.064;15.422;2023-09-19T20:41:27;19.60;99.90
21340;DHT22;10828;47.064;15.422;2023-09-19T20:43:54;19.60;99.90
21340;DHT22;10828;47.064;15.422;2023-09-19T20:46:20;19.50;99.90
21340;DHT22;10828;47.064;15.422;2023-09-19T20:48:49;19.50;99.90
21340;DHT22;10828;47.064;15.422;2023-09-19T20:51:18;19.50;99.90
21340;DHT22;10828;47.064;15.422;2023-09-19T20:53:55;19.50;99.90
21340;DHT22;10828;47.064;15.422;2023-09-19T20:56:24;19.50;99.90
21340;DHT22;10828;47.064;15.422;2023-09-19T20:58:50;19.50;99.90
21340;DHT22;10828;47.064;15.422;2023-09-19T21:01:16;19.40;99.90
21340;DHT22;10828;47.064;15.422;2023-09-19T21:03:48;19.40;99.90
21340;DHT22;10828;47.064;15.422;2023-09-19T21:06:15;19.40;99.90
21340;DHT22;10828;47.064;15.422;2023-09-19T21:08:42;19.40;99.90
21340;DHT22;10828;47.064;15.422;2023-09-19T21:11:17;19.40;99.90
21340;DHT22;10828;47.064;15.422;2023-09-19T21:13:57;19.50;99.90
21340;DHT22;10828;47.064;15.422;2023-09-19T21:16:34;19.50;99.90
21340;DHT22;10828;47.064;15.422;2023-09-19T21:19:07;19.40;99.90
21340;DHT22;10828;47.064;15.422;2023-09-19T21:21:34;19.30;99.90
21340;DHT22;10828;47.064;15.422;2023-09-19T21:24:03;19.30;99.90
21340;DHT22;10828;47.064;15.422;2023-09-19T21:26:38;19.20;99.90
21340;DHT22;10828;47.064;15.422;2023-09-19T21:29:19;19.20;99.90
21340;DHT22;10828;47.064;15.422;2023-09-19T21:31:53;19.10;99.90
21340;DHT22;10828;47.064;15.422;2023-09-19T21:34:26;19.10;99.90
21340;DHT22;10828;47.064;15.422;2023-09-19T21:36:52;19.10;99.90
21340;DHT22;10828;47.064;15.422;2023-09-19T21:39:25;19.00;99.90
21340;DHT22;10828;47.064;15.422;2023-09-19T21:41:52;19.10;99.90
21340;DHT22;10828;47.064;15.422;2023-09-19T21:44:24;18.90;99.90
21340;DHT22;10828;47.064;15.422;2023-09-19T21:46:52;18.90;99.90
21340;DHT22;10828;47.064;15.422;2023-09-19T21:49:22;18.80;99.90
21340;DHT22;10828;47.064;15.422;2023-09-19T21:51:48;18.80;99.90
21340;DHT22;10828;47.064;15.422;2023-09-19T21:54:27;18.70;99.90
21340;DHT22;10828;47.064;15.422;2023-09-19T21:56:58;18.70;99.90
21340;DHT22;10828;47.064;15.422;2023-09-19T21:59:28;18.70;99.90
21340;DHT22;10828;47.064;15.422;2023-09-19T22:02:04;18.60;99.90
21340;DHT22;10828;47.064;15.422;2023-09-19T22:04:39;18.60;99.90
21340;DHT22;10828;47.064;15.422;2023-09-19T22:07:12;18.60;99.90
21340;DHT22;10828;47.064;15.422;2023-09-19T22:09:38;18.60;99.90
21340;DHT22;10828;47.064;15.422;2023-09-19T22:12:07;18.50;99.90
21340;DHT22;10828;47.064;15.422;2023-09-19T22:14:33;18.50;99.90
21340;DHT22;10828;47.064;15.422;2023-09-19T22:17:22;18.40;99.90
21340;DHT22;10828;47.064;15.422;2023-09-19T22:19:57;18.40;99.90
21340;DHT22;10828;47.064;15.422;2023-09-19T22:22:24;18.40;99.90
21340;DHT22;10828;47.064;15.422;2023-09-19T22:24:50;18.40;99.90
21340;DHT22;10828;47.064;15.422;2023-09-19T22:27:22;18.40;99.90
21340;DHT22;10828;47.064;15.422;2023-09-19T22:29:49;18.40;99.90
21340;DHT22;10828;47.064;15.422;2023-09-19T22:32:26;18.30;99.90
21340;DHT22;10828;47.064;15.422;2023-09-19T22:34:54;18.30;99.90
21340;DHT22;10828;47.064;15.422;2023-09-19T22:37:21;18.30;99.90
21340;DHT22;10828;47.064;15.422;2023-09-19T22:39:55;18.20;99.90
21340;DHT22;10828;47.064;15.422;2023-09-19T22:42:25;18.20;99.90
